Time;durP1;ratioP1;P1;durP2;ratioP2;P2;SDS_P1;SDS_P2;PMS_P1;PMS_P2;Temp;Humidity;BMP_temperature;BMP_pressure;BME280_temperature;BME280_humidity;BME280_pressure;Samples;Min_cycle;Max_cycle;Signal;HPM_P1;HPM_P2
2021/12/25 00:01:45;;;;;;;13.35;0.85;;;;;;;;;;5082319;28;20523;-76
2021/12/25 00:04:11;;;;;;;0.88;0.60;;;;;;;;;;5080398;28;20135;-76
2021/12/25 00:06:37;;;;;;;0.55;0.20;;;;;;;;;;5081594;28;20543;-75
2021/12/25 00:09:05;;;;;;;4.85;0.50;;;;;;;;;;5082553;28;20044;-76
2021/12/25 00:11:31;;;;;;;1.85;0.57;;;;;;;;;;5075321;28;20551;-75
2021/12/25 00:13:57;;;;;;;1.58;0.57;;;;;;;;;;5072298;28;20547;-76
2021/12/25 00:16:23;;;;;;;1.52;0.55;;;;;;;;;;5072285;28;20036;-76
2021/12/25 00:18:49;;;;;;;0.30;0.30;;;;;;;;;;5071956;28;20105;-77
2021/12/25 00:21:15;;;;;;;0.40;0.28;;;;;;;;;;5072087;28;20156;-77
2021/12/25 00:23:41;;;;;;;1.88;0.30;;;;;;;;;;5071980;28;20048;-76
2021/12/25 00:26:13;;;;;;;12.35;0.70;;;;;;;;;;5071709;28;20570;-76
2021/12/25 00:31:28;;;;;;;2.42;0.30;;;;;;;;;;5088755;28;20048;-76
2021/12/25 00:33:58;;;;;;;0.47;0.43;;;;;;;;;;5072205;28;20064;-76
2021/12/25 00:36:25;;;;;;;0.95;0.40;;;;;;;;;;5071881;28;20444;-76
2021/12/25 00:38:51;;;;;;;0.40;0.20;;;;;;;;;;5071720;28;20047;-77
2021/12/25 00:41:19;;;;;;;4.13;0.65;;;;;;;;;;5071830;28;20044;-77
2021/12/25 00:43:45;;;;;;;1.85;0.30;;;;;;;;;;5071662;28;20044;-77
2021/12/25 00:46:11;;;;;;;2.10;0.40;;;;;;;;;;5071465;28;20395;-76
2021/12/25 00:48:37;;;;;;;1.70;0.32;;;;;;;;;;5071338;28;20124;-76
2021/12/25 00:51:04;;;;;;;4.10;0.90;;;;;;;;;;5072105;28;20087;-77
2021/12/25 00:53:30;;;;;;;1.13;0.30;;;;;;;;;;5072016;28;20128;-77
2021/12/25 00:55:56;;;;;;;3.58;0.82;;;;;;;;;;5071581;28;20119;-77
2021/12/25 00:58:22;;;;;;;1.83;0.40;;;;;;;;;;5071745;28;20411;-77
2021/12/25 01:00:48;;;;;;;1.52;0.60;;;;;;;;;;5079805;28;20101;-77
2021/12/25 01:03:14;;;;;;;1.80;0.40;;;;;;;;;;5074788;28;20532;-78
2021/12/25 01:05:40;;;;;;;1.13;0.50;;;;;;;;;;5074809;28;20039;-77
2021/12/25 01:08:07;;;;;;;0.63;0.25;;;;;;;;;;5091519;28;20123;-78
2021/12/25 01:10:34;;;;;;;1.75;0.55;;;;;;;;;;5075121;28;20539;-77
2021/12/25 01:13:14;;;;;;;3.50;0.60;;;;;;;;;;5091674;28;20044;-78
2021/12/25 01:31:20;;;;;;;1.20;0.50;;;;;;;;;;5090290;28;20070;-78
2021/12/25 01:49:28;;;;;;;7.65;0.50;;;;;;;;;;5111362;28;20574;-78
2021/12/25 01:51:54;;;;;;;1.48;0.57;;;;;;;;;;5094400;28;20131;-78
2021/12/25 01:54:20;;;;;;;0.90;0.90;;;;;;;;;;5094614;28;20036;-79
2021/12/25 01:56:47;;;;;;;0.28;0.13;;;;;;;;;;5094043;28;20047;-79
2021/12/25 01:59:13;;;;;;;0.30;0.30;;;;;;;;;;5094513;28;20035;-79
2021/12/25 02:01:39;;;;;;;1.77;0.30;;;;;;;;;;5094609;28;20051;-78
2021/12/25 02:04:05;;;;;;;2.42;0.45;;;;;;;;;;5109510;28;20091;-79
2021/12/25 02:06:31;;;;;;;2.58;0.43;;;;;;;;;;5111136;28;20051;-78
2021/12/25 02:08:57;;;;;;;1.55;0.40;;;;;;;;;;5094256;28;20043;-79
2021/12/25 02:11:24;;;;;;;2.05;0.30;;;;;;;;;;5111382;28;20043;-78
2021/12/25 02:13:50;;;;;;;0.75;0.32;;;;;;;;;;5094103;28;20498;-77
2021/12/25 02:16:19;;;;;;;1.00;0.50;;;;;;;;;;5094009;28;20039;-78
2021/12/25 02:19:00;;;;;;;0.65;0.55;;;;;;;;;;5111345;28;20039;-78
2021/12/25 02:21:35;;;;;;;1.10;0.50;;;;;;;;;;5111515;28;20043;-79
2021/12/25 02:24:01;;;;;;;1.02;0.45;;;;;;;;;;5094137;28;20054;-79
2021/12/25 02:26:27;;;;;;;0.98;0.50;;;;;;;;;;5094057;28;20096;-79
2021/12/25 02:28:53;;;;;;;2.33;0.57;;;;;;;;;;5093857;28;20641;-79
2021/12/25 02:31:20;;;;;;;2.72;0.65;;;;;;;;;;5093838;28;20448;-80
2021/12/25 02:33:46;;;;;;;3.80;0.88;;;;;;;;;;5092194;28;20502;-80
2021/12/25 02:36:13;;;;;;;0.40;0.40;;;;;;;;;;5093518;28;20043;-82
2021/12/25 02:38:39;;;;;;;1.92;0.60;;;;;;;;;;5093785;28;20508;-79
2021/12/25 02:41:06;;;;;;;2.38;0.50;;;;;;;;;;5093717;28;20031;-80
2021/12/25 02:43:32;;;;;;;0.50;0.50;;;;;;;;;;5094061;28;20044;-80
2021/12/25 02:46:02;;;;;;;0.30;0.30;;;;;;;;;;5094325;28;20130;-80
2021/12/25 02:48:28;;;;;;;0.40;0.40;;;;;;;;;;5111392;28;20122;-79
2021/12/25 02:50:54;;;;;;;0.63;0.32;;;;;;;;;;5094200;28;20036;-79
2021/12/25 02:53:20;;;;;;;1.63;0.63;;;;;;;;;;5093865;28;20395;-79
2021/12/25 02:55:47;;;;;;;0.40;0.40;;;;;;;;;;5110709;28;20050;-79
2021/12/25 02:58:13;;;;;;;1.63;0.57;;;;;;;;;;5094209;28;20066;-79
2021/12/25 03:00:41;;;;;;;3.38;0.60;;;;;;;;;;5094102;28;20039;-79
2021/12/25 03:03:08;;;;;;;1.38;0.60;;;;;;;;;;5109462;28;20068;-80
2021/12/25 03:05:34;;;;;;;0.73;0.35;;;;;;;;;;5093800;28;20039;-80
2021/12/25 03:08:00;;;;;;;0.40;0.20;;;;;;;;;;5093841;28;20040;-79
2021/12/25 03:10:26;;;;;;;0.70;0.52;;;;;;;;;;5093659;28;20118;-78
2021/12/25 03:15:47;;;;;;;0.75;0.60;;;;;;;;;;5110941;28;20164;-79
2021/12/25 03:18:17;;;;;;;0.50;0.43;;;;;;;;;;5109161;28;20051;-79
2021/12/25 03:20:45;;;;;;;0.60;0.33;;;;;;;;;;5093778;28;20200;-80
2021/12/25 03:23:15;;;;;;;0.52;0.40;;;;;;;;;;5094234;28;20285;-79
2021/12/25 03:25:42;;;;;;;0.50;0.40;;;;;;;;;;5114777;28;20046;-78
2021/12/25 03:28:08;;;;;;;0.43;0.43;;;;;;;;;;5097410;28;20126;-79
2021/12/25 03:30:38;;;;;;;0.40;0.20;;;;;;;;;;5097352;28;20035;-77
2021/12/25 03:33:05;;;;;;;0.88;0.43;;;;;;;;;;5096498;28;20142;-79
2021/12/25 03:35:33;;;;;;;1.95;0.60;;;;;;;;;;5114590;28;20047;-80
2021/12/25 03:37:59;;;;;;;1.23;0.65;;;;;;;;;;5114142;28;20039;-80
2021/12/25 03:40:25;;;;;;;1.65;0.52;;;;;;;;;;5097379;28;20089;-79
2021/12/25 03:42:51;;;;;;;1.90;0.40;;;;;;;;;;5096954;28;20069;-79
2021/12/25 03:45:17;;;;;;;2.13;0.60;;;;;;;;;;5097296;28;20099;-79
2021/12/25 03:47:45;;;;;;;1.58;0.50;;;;;;;;;;5097054;28;20331;-79
2021/12/25 03:58:16;;;;;;;2.83;0.40;;;;;;;;;;5114502;28;20050;-79
2021/12/25 04:00:43;;;;;;;;;;;;;;;;;;5097091;28;20082;-80
2021/12/25 04:03:17;;;;;;;2.38;0.68;;;;;;;;;;5109516;28;19935;-80
2021/12/25 04:05:46;;;;;;;0.73;0.40;;;;;;;;;;5076492;28;20052;-79
2021/12/25 04:08:15;;;;;;;0.80;0.65;;;;;;;;;;5076185;28;20046;-80
2021/12/25 04:10:43;;;;;;;1.17;0.52;;;;;;;;;;5092961;28;20036;-80
2021/12/25 04:13:10;;;;;;;0.73;0.32;;;;;;;;;;5076363;28;20042;-79
2021/12/25 04:15:36;;;;;;;0.22;0.22;;;;;;;;;;5093341;28;20475;-79
2021/12/25 04:18:03;;;;;;;1.55;0.63;;;;;;;;;;5075749;28;20044;-80
2021/12/25 04:20:29;;;;;;;0.82;0.55;;;;;;;;;;5075832;28;20036;-78
2021/12/25 04:23:01;;;;;;;4.00;0.80;;;;;;;;;;5075844;28;20036;-81
2021/12/25 04:25:30;;;;;;;1.10;0.30;;;;;;;;;;5075851;28;20035;-81
2021/12/25 04:28:00;;;;;;;3.05;0.80;;;;;;;;;;5075622;28;20090;-79
2021/12/25 04:30:37;;;;;;;0.93;0.50;;;;;;;;;;5075992;28;20043;-79
2021/12/25 05:05:28;;;;;;;1.35;0.80;;;;;;;;;;5091612;28;20051;-78
2021/12/25 05:07:54;;;;;;;1.23;0.65;;;;;;;;;;5074576;28;20042;-79
2021/12/25 05:10:20;;;;;;;0.40;0.40;;;;;;;;;;5074363;28;20032;-78
2021/12/25 05:12:46;;;;;;;0.93;0.50;;;;;;;;;;5074659;28;20050;-78
2021/12/25 05:15:12;;;;;;;3.85;0.70;;;;;;;;;;5074341;28;20068;-78
2021/12/25 05:17:38;;;;;;;0.90;0.63;;;;;;;;;;5074435;28;20086;-78
2021/12/25 05:20:05;;;;;;;4.07;0.70;;;;;;;;;;5071536;28;20036;-78
2021/12/25 05:22:31;;;;;;;0.65;0.30;;;;;;;;;;5091294;28;20039;-79
2021/12/25 05:24:57;;;;;;;0.77;0.30;;;;;;;;;;5090916;28;20047;-77
2021/12/25 05:27:23;;;;;;;1.20;0.65;;;;;;;;;;5090806;28;20036;-76
2021/12/25 05:29:49;;;;;;;1.10;0.50;;;;;;;;;;5091014;28;20040;-78
2021/12/25 05:32:16;;;;;;;1.15;0.63;;;;;;;;;;5090964;28;20047;-78
2021/12/25 05:34:42;;;;;;;4.45;0.80;;;;;;;;;;5091493;28;20047;-76
2021/12/25 05:37:08;;;;;;;2.65;0.45;;;;;;;;;;5090993;28;20104;-76
2021/12/25 05:39:34;;;;;;;0.40;0.40;;;;;;;;;;5090829;28;20047;-77
2021/12/25 05:42:00;;;;;;;1.40;0.90;;;;;;;;;;5090737;28;20136;-77
2021/12/25 05:44:26;;;;;;;2.28;0.63;;;;;;;;;;5090589;28;20044;-77
2021/12/25 05:46:52;;;;;;;0.93;0.43;;;;;;;;;;5090990;28;20552;-77
2021/12/25 05:49:20;;;;;;;0.55;0.55;;;;;;;;;;5090342;28;20075;-77
2021/12/25 05:51:46;;;;;;;2.03;0.60;;;;;;;;;;5090530;28;20044;-77
2021/12/25 05:54:12;;;;;;;0.47;0.40;;;;;;;;;;5090349;28;20089;-77
2021/12/25 05:56:38;;;;;;;0.30;0.30;;;;;;;;;;5090599;28;20035;-76
2021/12/25 05:59:04;;;;;;;1.48;0.40;;;;;;;;;;5090408;28;20036;-76
2021/12/25 06:01:31;;;;;;;0.60;0.30;;;;;;;;;;5090355;28;20040;-77
2021/12/25 06:03:57;;;;;;;1.85;0.57;;;;;;;;;;5089962;28;20056;-76
2021/12/25 06:06:24;;;;;;;0.70;0.50;;;;;;;;;;5090191;28;20051;-77
2021/12/25 06:08:50;;;;;;;1.38;0.47;;;;;;;;;;5077265;28;20040;-76
2021/12/25 06:11:17;;;;;;;0.30;0.30;;;;;;;;;;5070209;28;20040;-77
2021/12/25 06:13:55;;;;;;;1.55;0.52;;;;;;;;;;5069950;28;20042;-76
2021/12/25 06:16:21;;;;;;;0.75;0.52;;;;;;;;;;5070298;28;20037;-76
2021/12/25 06:18:47;;;;;;;0.30;0.30;;;;;;;;;;5069917;28;20063;-76
2021/12/25 06:21:13;;;;;;;0.57;0.40;;;;;;;;;;5069959;28;20037;-76
2021/12/25 06:23:39;;;;;;;0.55;0.52;;;;;;;;;;5070122;28;20383;-76
2021/12/25 06:26:05;;;;;;;2.10;0.35;;;;;;;;;;5069868;28;20045;-76
2021/12/25 06:28:31;;;;;;;0.82;0.40;;;;;;;;;;5069792;28;20456;-76
2021/12/25 06:30:57;;;;;;;1.27;0.45;;;;;;;;;;5069812;28;20036;-76
2021/12/25 06:33:23;;;;;;;1.88;0.50;;;;;;;;;;5070008;28;20033;-76
2021/12/25 06:35:50;;;;;;;0.52;0.45;;;;;;;;;;5069973;28;20123;-76
2021/12/25 06:38:16;;;;;;;1.17;0.50;;;;;;;;;;5069728;28;20048;-75
2021/12/25 06:40:42;;;;;;;0.47;0.30;;;;;;;;;;5069920;28;20519;-75
2021/12/25 06:43:08;;;;;;;1.40;0.50;;;;;;;;;;5074853;28;20119;-76
2021/12/25 06:45:34;;;;;;;0.43;0.30;;;;;;;;;;5078327;28;20036;-76
2021/12/25 06:48:00;;;;;;;2.03;0.68;;;;;;;;;;5080312;28;20524;-76
2021/12/25 06:50:26;;;;;;;1.05;0.50;;;;;;;;;;5079795;28;20037;-76
2021/12/25 06:52:52;;;;;;;0.30;0.22;;;;;;;;;;5078523;28;20124;-77
2021/12/25 06:55:18;;;;;;;2.67;0.50;;;;;;;;;;5078820;28;20040;-75
2021/12/25 06:57:53;;;;;;;0.52;0.52;;;;;;;;;;5079763;28;20475;-76
2021/12/25 07:00:20;;;;;;;1.77;0.40;;;;;;;;;;5084843;28;20082;-76
2021/12/25 07:02:46;;;;;;;0.30;0.30;;;;;;;;;;5085210;28;20068;-75
2021/12/25 07:05:12;;;;;;;2.65;0.73;;;;;;;;;;5077109;28;20535;-76
2021/12/25 07:07:38;;;;;;;1.95;0.63;;;;;;;;;;5073780;28;20087;-76
2021/12/25 07:10:05;;;;;;;3.08;0.55;;;;;;;;;;5073676;28;20044;-75
2021/12/25 07:12:36;;;;;;;0.73;0.50;;;;;;;;;;5072958;28;20174;-76
2021/12/25 07:15:01;;;;;;;;;;;;;;;;;;5070353;28;20048;-76
2021/12/25 07:17:27;;;;;;;0.68;0.47;;;;;;;;;;5070069;28;19920;-75
2021/12/25 07:19:53;;;;;;;3.40;0.80;;;;;;;;;;5069417;28;20052;-75
2021/12/25 07:22:19;;;;;;;2.85;0.50;;;;;;;;;;5069735;28;20429;-75
2021/12/25 07:24:45;;;;;;;2.08;0.63;;;;;;;;;;5069657;28;20420;-75
2021/12/25 07:27:11;;;;;;;0.30;0.30;;;;;;;;;;5071184;28;20174;-76
2021/12/25 07:29:37;;;;;;;3.35;1.17;;;;;;;;;;5073133;28;20147;-74
2021/12/25 07:32:04;;;;;;;0.50;0.50;;;;;;;;;;5096698;28;20032;-75
2021/12/25 07:34:30;;;;;;;0.90;0.50;;;;;;;;;;5096968;28;20043;-75
2021/12/25 07:36:56;;;;;;;2.45;0.45;;;;;;;;;;5113977;28;20055;-75
2021/12/25 07:39:22;;;;;;;1.75;0.65;;;;;;;;;;5096789;28;20052;-75
2021/12/25 07:41:48;;;;;;;0.75;0.50;;;;;;;;;;5097517;28;20488;-75
2021/12/25 07:44:14;;;;;;;1.10;0.57;;;;;;;;;;5113561;28;20495;-74
2021/12/25 07:46:40;;;;;;;3.00;0.65;;;;;;;;;;5114683;28;20039;-78
2021/12/25 07:49:06;;;;;;;2.33;0.65;;;;;;;;;;5115734;28;20043;-79
2021/12/25 07:51:32;;;;;;;3.30;1.08;;;;;;;;;;5114961;28;20035;-78
2021/12/25 07:53:58;;;;;;;2.45;0.63;;;;;;;;;;5115138;28;20040;-79
2021/12/25 07:56:26;;;;;;;3.00;0.70;;;;;;;;;;5114533;28;20404;-79
2021/12/25 07:58:52;;;;;;;2.88;0.70;;;;;;;;;;5097402;28;20043;-78
2021/12/25 08:01:19;;;;;;;3.63;0.60;;;;;;;;;;5114246;28;20050;-79
2021/12/25 08:03:45;;;;;;;3.53;0.77;;;;;;;;;;5097046;28;20052;-78
2021/12/25 08:06:11;;;;;;;2.13;0.70;;;;;;;;;;5114561;28;20047;-80
2021/12/25 08:08:37;;;;;;;4.18;0.65;;;;;;;;;;5114607;28;20043;-78
2021/12/25 08:11:03;;;;;;;3.53;0.88;;;;;;;;;;5095705;28;20040;-78
2021/12/25 08:13:29;;;;;;;1.30;0.60;;;;;;;;;;5097268;28;20118;-78
2021/12/25 08:15:55;;;;;;;0.47;0.43;;;;;;;;;;5113716;28;20071;-79
2021/12/25 08:18:21;;;;;;;2.08;0.70;;;;;;;;;;5113578;28;20047;-80
2021/12/25 08:20:47;;;;;;;0.98;0.63;;;;;;;;;;5113109;28;20039;-78
2021/12/25 08:23:13;;;;;;;1.02;0.63;;;;;;;;;;5096348;28;20039;-78
2021/12/25 08:25:39;;;;;;;1.10;0.82;;;;;;;;;;5112974;28;20039;-78
2021/12/25 08:28:05;;;;;;;1.08;0.40;;;;;;;;;;5112867;28;20423;-79
2021/12/25 08:30:31;;;;;;;1.85;0.60;;;;;;;;;;5111670;28;20406;-78
2021/12/25 08:32:59;;;;;;;2.20;0.50;;;;;;;;;;5094200;28;20039;-79
2021/12/25 08:35:26;;;;;;;2.97;0.68;;;;;;;;;;5095829;28;20036;-78
2021/12/25 08:37:52;;;;;;;0.85;0.68;;;;;;;;;;5112808;28;20097;-78
2021/12/25 08:40:18;;;;;;;0.70;0.47;;;;;;;;;;5095232;28;20403;-78
2021/12/25 08:42:52;;;;;;;1.90;1.05;;;;;;;;;;5095381;28;20128;-78
2021/12/25 08:48:06;;;;;;;4.35;0.60;;;;;;;;;;5112418;28;20040;-78
2021/12/25 08:50:32;;;;;;;2.88;0.80;;;;;;;;;;5112569;28;20082;-77
2021/12/25 08:52:58;;;;;;;1.67;1.20;;;;;;;;;;5112676;28;20097;-77
2021/12/25 08:55:25;;;;;;;0.75;0.50;;;;;;;;;;5112309;28;20032;-77
2021/12/25 08:57:51;;;;;;;5.80;0.73;;;;;;;;;;5095745;28;20043;-77
2021/12/25 09:00:19;;;;;;;0.80;0.40;;;;;;;;;;5112667;28;20043;-78
2021/12/25 09:02:45;;;;;;;0.80;0.57;;;;;;;;;;5093882;28;20071;-77
2021/12/25 09:05:11;;;;;;;1.02;0.57;;;;;;;;;;5112262;28;20126;-78
2021/12/25 09:07:37;;;;;;;1.15;0.50;;;;;;;;;;5112201;28;20456;-79
2021/12/25 09:10:04;;;;;;;0.85;0.57;;;;;;;;;;5095269;28;20032;-78
2021/12/25 09:12:32;;;;;;;3.13;1.15;;;;;;;;;;5095306;28;20118;-78
2021/12/25 09:14:58;;;;;;;1.30;0.52;;;;;;;;;;5112150;28;20070;-78
2021/12/25 09:17:24;;;;;;;2.38;1.10;;;;;;;;;;5095183;28;20387;-78
2021/12/25 09:19:50;;;;;;;2.13;0.70;;;;;;;;;;5111904;28;20035;-77
2021/12/25 09:22:16;;;;;;;1.98;0.88;;;;;;;;;;5095029;28;20027;-77
2021/12/25 09:24:42;;;;;;;1.58;0.70;;;;;;;;;;5112181;28;20046;-78
2021/12/25 09:27:08;;;;;;;3.17;0.70;;;;;;;;;;5112157;28;20500;-78
2021/12/25 09:29:35;;;;;;;2.13;0.65;;;;;;;;;;5095008;28;20035;-77
2021/12/25 09:32:01;;;;;;;1.45;0.80;;;;;;;;;;5093609;28;20039;-77
2021/12/25 09:34:27;;;;;;;2.40;1.02;;;;;;;;;;5094473;28;20042;-77
2021/12/25 09:36:53;;;;;;;1.38;0.50;;;;;;;;;;5111827;28;20042;-78
2021/12/25 09:39:19;;;;;;;1.45;0.73;;;;;;;;;;5094944;28;20035;-78
2021/12/25 09:41:45;;;;;;;3.00;0.80;;;;;;;;;;5094638;28;20047;-78
2021/12/25 09:44:11;;;;;;;3.80;0.73;;;;;;;;;;5111993;28;20039;-78
2021/12/25 09:46:37;;;;;;;1.80;0.70;;;;;;;;;;5111838;28;20043;-77
2021/12/25 09:49:04;;;;;;;2.63;0.90;;;;;;;;;;5111085;28;20055;-78
2021/12/25 09:51:29;;;;;;;2.28;0.63;;;;;;;;;;5111446;28;20491;-78
2021/12/25 09:54:06;;;;;;;2.88;0.70;;;;;;;;;;5110944;28;20096;-77
2021/12/25 09:56:32;;;;;;;2.97;1.02;;;;;;;;;;5111236;28;20050;-79
2021/12/25 09:58:58;;;;;;;1.58;0.60;;;;;;;;;;5110897;28;20074;-78
2021/12/25 10:01:34;;;;;;;1.45;0.63;;;;;;;;;;5111047;28;20090;-78
2021/12/25 10:04:00;;;;;;;1.13;0.60;;;;;;;;;;5075002;28;20411;-80
2021/12/25 10:06:34;;;;;;;2.35;0.75;;;;;;;;;;5090805;28;20056;-77
2021/12/25 10:09:11;;;;;;;6.20;0.70;;;;;;;;;;5073949;28;20384;-77
2021/12/25 10:11:37;;;;;;;3.72;0.60;;;;;;;;;;5090642;28;20399;-78
2021/12/25 10:14:03;;;;;;;3.50;0.73;;;;;;;;;;5073893;28;20032;-77
2021/12/25 10:16:32;;;;;;;1.67;0.50;;;;;;;;;;5090963;28;20036;-77
2021/12/25 10:19:13;;;;;;;2.13;0.80;;;;;;;;;;5073871;28;20047;-78
2021/12/25 10:21:39;;;;;;;1.73;0.77;;;;;;;;;;5090766;28;20557;-78
2021/12/25 10:24:12;;;;;;;0.98;0.68;;;;;;;;;;5090853;28;20044;-78
2021/12/25 10:26:41;;;;;;;2.72;0.60;;;;;;;;;;5073598;28;20039;-77
2021/12/25 10:29:16;;;;;;;1.70;0.77;;;;;;;;;;5073549;28;20547;-79
2021/12/25 10:31:42;;;;;;;0.82;0.60;;;;;;;;;;5073585;28;20040;-77
2021/12/25 10:34:19;;;;;;;1.77;0.60;;;;;;;;;;5089716;28;20660;-77
2021/12/25 10:36:45;;;;;;;4.43;1.10;;;;;;;;;;5110950;28;20047;-76
2021/12/25 10:39:16;;;;;;;4.88;0.80;;;;;;;;;;5110183;28;20039;-79
2021/12/25 10:41:53;;;;;;;1.08;0.90;;;;;;;;;;5110767;28;20113;-77
2021/12/25 10:44:23;;;;;;;1.25;0.75;;;;;;;;;;5093733;28;20093;-78
2021/12/25 10:46:59;;;;;;;2.85;0.93;;;;;;;;;;5093609;28;20040;-77
2021/12/25 10:49:27;;;;;;;2.05;0.60;;;;;;;;;;5110475;28;20130;-79
2021/12/25 10:51:53;;;;;;;0.73;0.68;;;;;;;;;;5110593;28;20040;-77
2021/12/25 10:54:20;;;;;;;1.70;0.88;;;;;;;;;;5110898;28;20094;-79
2021/12/25 10:56:47;;;;;;;3.90;0.82;;;;;;;;;;5110421;28;20462;-78
2021/12/25 10:59:15;;;;;;;4.07;0.55;;;;;;;;;;5093679;28;20036;-77
2021/12/25 11:01:42;;;;;;;1.27;0.68;;;;;;;;;;5093572;28;20039;-78
2021/12/25 11:04:24;;;;;;;2.25;0.85;;;;;;;;;;5091620;28;20066;-79
2021/12/25 11:06:50;;;;;;;2.17;0.90;;;;;;;;;;5110593;28;20048;-78
2021/12/25 11:09:16;;;;;;;3.38;1.00;;;;;;;;;;5093240;28;20058;-77
2021/12/25 11:11:42;;;;;;;0.88;0.50;;;;;;;;;;5093452;28;20043;-78
2021/12/25 11:14:13;;;;;;;1.05;0.52;;;;;;;;;;5110365;28;20092;-78
2021/12/25 11:16:40;;;;;;;1.77;0.70;;;;;;;;;;5110419;28;20119;-77
2021/12/25 11:19:27;;;;;;;0.73;0.50;;;;;;;;;;5110374;28;20054;-77
2021/12/25 11:21:56;;;;;;;1.30;0.70;;;;;;;;;;5110925;28;20051;-77
2021/12/25 11:24:24;;;;;;;2.55;0.57;;;;;;;;;;5110857;28;20487;-79
2021/12/25 11:26:51;;;;;;;1.30;0.60;;;;;;;;;;5093329;28;20453;-77
2021/12/25 11:29:18;;;;;;;1.70;0.63;;;;;;;;;;5110366;28;20047;-79
2021/12/25 11:31:45;;;;;;;1.00;0.65;;;;;;;;;;5110189;28;20112;-79
2021/12/25 11:34:11;;;;;;;0.88;0.57;;;;;;;;;;5107793;28;20092;-78
2021/12/25 11:36:38;;;;;;;2.03;0.60;;;;;;;;;;5092766;28;20044;-78
2021/12/25 11:39:05;;;;;;;0.75;0.50;;;;;;;;;;5110055;28;20040;-78
2021/12/25 11:41:32;;;;;;;1.90;0.63;;;;;;;;;;5110546;28;20043;-77
2021/12/25 11:44:00;;;;;;;1.38;0.50;;;;;;;;;;5110190;28;20039;-78
2021/12/25 11:46:39;;;;;;;0.80;0.50;;;;;;;;;;5113472;28;20043;-78
2021/12/25 11:49:10;;;;;;;1.00;0.60;;;;;;;;;;5113969;28;20053;-78
2021/12/25 11:51:39;;;;;;;1.80;0.65;;;;;;;;;;5096261;28;20062;-78
2021/12/25 11:54:27;;;;;;;5.00;0.57;;;;;;;;;;5113693;28;20114;-79
2021/12/25 11:59:52;;;;;;;1.70;0.80;;;;;;;;;;5113400;28;20100;-79
2021/12/25 12:02:38;;;;;;;1.45;0.75;;;;;;;;;;5111266;28;20039;-78
2021/12/25 12:05:16;;;;;;;0.80;0.50;;;;;;;;;;5109573;28;20051;-77
2021/12/25 12:07:59;;;;;;;0.88;0.52;;;;;;;;;;5092190;28;20076;-80
2021/12/25 12:10:44;;;;;;;1.77;0.90;;;;;;;;;;5092447;28;20399;-78
2021/12/25 12:13:27;;;;;;;3.33;0.82;;;;;;;;;;5109407;28;20039;-78
2021/12/25 12:15:54;;;;;;;2.47;0.63;;;;;;;;;;5109081;28;20483;-79
2021/12/25 12:18:27;;;;;;;1.13;0.65;;;;;;;;;;5109514;28;20059;-79
2021/12/25 12:20:59;;;;;;;0.50;0.43;;;;;;;;;;5109362;28;20040;-79
2021/12/25 12:23:48;;;;;;;1.95;0.85;;;;;;;;;;5092840;28;20411;-78
2021/12/25 12:26:14;;;;;;;1.58;0.55;;;;;;;;;;5092714;28;20055;-77
2021/12/25 12:28:48;;;;;;;3.40;1.05;;;;;;;;;;5109905;28;20046;-77
2021/12/25 12:31:33;;;;;;;2.33;0.75;;;;;;;;;;5111090;28;20039;-78
2021/12/25 12:33:59;;;;;;;3.33;0.50;;;;;;;;;;5113404;28;20372;-78
2021/12/25 12:36:26;;;;;;;2.20;0.60;;;;;;;;;;5113671;28;20104;-79
2021/12/25 12:38:59;;;;;;;0.60;0.50;;;;;;;;;;5114899;28;20051;-79
2021/12/25 12:41:28;;;;;;;1.55;0.50;;;;;;;;;;5114981;28;20043;-79
2021/12/25 12:44:02;;;;;;;2.65;0.70;;;;;;;;;;5096024;28;20130;-80
2021/12/25 12:46:47;;;;;;;1.75;0.47;;;;;;;;;;5096380;28;20043;-79
2021/12/25 12:49:14;;;;;;;1.48;0.70;;;;;;;;;;5112990;28;20082;-80
2021/12/25 12:51:40;;;;;;;1.52;0.43;;;;;;;;;;5096141;28;20031;-77
2021/12/25 12:54:06;;;;;;;2.67;0.70;;;;;;;;;;5113558;28;20503;-79
2021/12/25 12:56:32;;;;;;;1.15;0.70;;;;;;;;;;5076160;28;20043;-79
2021/12/25 12:58:58;;;;;;;1.25;0.50;;;;;;;;;;5091972;28;20047;-78
2021/12/25 13:01:25;;;;;;;0.88;0.80;;;;;;;;;;5088720;28;20040;-79
2021/12/25 13:03:55;;;;;;;2.35;0.57;;;;;;;;;;5071325;28;20061;-79
2021/12/25 13:06:21;;;;;;;0.88;0.50;;;;;;;;;;5072654;28;20407;-77
2021/12/25 13:08:48;;;;;;;1.30;0.88;;;;;;;;;;5072178;28;20045;-78
2021/12/25 13:11:22;;;;;;;1.33;0.60;;;;;;;;;;5071812;28;20518;-78
2021/12/25 13:13:54;;;;;;;0.98;0.88;;;;;;;;;;5073025;28;20044;-79
2021/12/25 13:16:23;;;;;;;1.95;0.93;;;;;;;;;;5071582;28;20048;-78
2021/12/25 13:18:51;;;;;;;1.55;0.60;;;;;;;;;;5071872;28;20098;-79
2021/12/25 13:21:21;;;;;;;3.53;0.60;;;;;;;;;;5071712;28;20385;-77
2021/12/25 13:23:51;;;;;;;1.85;0.70;;;;;;;;;;5083078;28;20089;-79
2021/12/25 13:26:19;;;;;;;2.05;1.10;;;;;;;;;;5076771;28;20048;-79
2021/12/25 13:28:47;;;;;;;2.58;1.30;;;;;;;;;;5071449;28;20048;-79
2021/12/25 13:31:15;;;;;;;1.73;0.90;;;;;;;;;;5079615;28;20551;-78
2021/12/25 13:33:55;;;;;;;1.25;1.00;;;;;;;;;;5074174;28;20036;-79
2021/12/25 13:36:26;;;;;;;1.85;0.77;;;;;;;;;;5088311;28;20040;-78
2021/12/25 13:38:58;;;;;;;4.75;1.52;;;;;;;;;;5091405;28;20042;-78
2021/12/25 13:41:37;;;;;;;1.90;0.98;;;;;;;;;;5092018;28;20040;-79
2021/12/25 13:44:09;;;;;;;1.13;0.80;;;;;;;;;;5081361;28;20036;-78
2021/12/25 13:46:36;;;;;;;2.25;0.90;;;;;;;;;;5071520;28;20107;-78
2021/12/25 13:49:02;;;;;;;2.53;0.85;;;;;;;;;;5071750;28;20069;-79
2021/12/25 13:51:28;;;;;;;1.17;0.73;;;;;;;;;;5074925;28;20067;-79
2021/12/25 13:53:54;;;;;;;2.90;0.70;;;;;;;;;;5072236;28;20498;-79
2021/12/25 13:56:20;;;;;;;1.10;1.00;;;;;;;;;;5071472;28;20477;-81
2021/12/25 13:58:46;;;;;;;4.72;1.13;;;;;;;;;;5072951;28;20124;-80
2021/12/25 14:01:16;;;;;;;3.42;0.95;;;;;;;;;;5071140;28;20546;-80
2021/12/25 14:03:43;;;;;;;1.33;0.68;;;;;;;;;;5071921;28;20060;-79
2021/12/25 14:06:09;;;;;;;1.75;0.82;;;;;;;;;;5071291;28;20091;-78
2021/12/25 14:08:35;;;;;;;2.30;1.00;;;;;;;;;;5070753;28;20097;-78
2021/12/25 14:11:01;;;;;;;0.82;0.60;;;;;;;;;;5076150;28;20036;-80
2021/12/25 14:13:29;;;;;;;5.35;1.17;;;;;;;;;;5075067;28;20036;-78
2021/12/25 14:15:55;;;;;;;2.83;0.80;;;;;;;;;;5091413;28;20483;-80
2021/12/25 14:18:27;;;;;;;1.83;1.27;;;;;;;;;;5091727;28;20087;-78
2021/12/25 14:20:53;;;;;;;1.60;0.85;;;;;;;;;;5088535;28;20044;-79
2021/12/25 14:23:20;;;;;;;2.55;0.98;;;;;;;;;;5068477;28;20047;-78
2021/12/25 14:25:55;;;;;;;3.58;1.70;;;;;;;;;;5080858;28;20461;-79
2021/12/25 14:28:22;;;;;;;3.13;1.25;;;;;;;;;;5072072;28;20532;-79
2021/12/25 14:31:07;;;;;;;2.28;1.88;;;;;;;;;;5082716;28;20036;-77
2021/12/25 14:33:55;;;;;;;1.27;0.80;;;;;;;;;;5090043;28;20043;-78
2021/12/25 14:36:22;;;;;;;2.88;0.85;;;;;;;;;;5074299;28;20093;-78
2021/12/25 14:38:49;;;;;;;2.13;1.30;;;;;;;;;;5074634;28;20123;-79
2021/12/25 14:41:16;;;;;;;2.88;1.45;;;;;;;;;;5091874;28;20047;-78
2021/12/25 14:43:42;;;;;;;1.73;1.10;;;;;;;;;;5091602;28;20076;-79
2021/12/25 14:46:18;;;;;;;1.77;1.02;;;;;;;;;;5092376;28;20050;-77
2021/12/25 14:48:44;;;;;;;1.13;0.98;;;;;;;;;;5073535;28;20043;-78
2021/12/25 14:51:20;;;;;;;1.90;0.90;;;;;;;;;;5073546;28;20036;-78
2021/12/25 14:54:01;;;;;;;4.22;1.30;;;;;;;;;;5090779;28;20044;-78
2021/12/25 14:56:27;;;;;;;4.75;1.17;;;;;;;;;;5090613;28;20068;-77
2021/12/25 14:58:54;;;;;;;4.78;1.30;;;;;;;;;;5069366;28;20091;-77
2021/12/25 15:01:22;;;;;;;1.83;1.10;;;;;;;;;;5087642;28;20040;-77
2021/12/25 15:04:06;;;;;;;2.75;1.17;;;;;;;;;;5085019;28;20121;-77
2021/12/25 15:06:33;;;;;;;1.13;0.82;;;;;;;;;;5072323;28;20550;-79
2021/12/25 15:09:11;;;;;;;2.35;1.00;;;;;;;;;;5088119;28;20121;-78
2021/12/25 15:11:39;;;;;;;2.00;1.05;;;;;;;;;;5089166;28;20043;-78
2021/12/25 15:14:06;;;;;;;2.10;1.00;;;;;;;;;;5071137;28;20043;-78
2021/12/25 15:16:46;;;;;;;2.80;1.13;;;;;;;;;;5088248;28;20032;-77
2021/12/25 15:19:24;;;;;;;1.25;0.77;;;;;;;;;;5089364;28;20633;-79
2021/12/25 15:21:51;;;;;;;2.75;1.08;;;;;;;;;;5094510;28;20566;-77
2021/12/25 15:24:19;;;;;;;4.80;1.10;;;;;;;;;;5075298;28;20040;-78
2021/12/25 15:26:49;;;;;;;3.90;1.15;;;;;;;;;;5078268;28;20092;-78
2021/12/25 15:29:16;;;;;;;2.83;0.90;;;;;;;;;;5075154;28;20131;-78
2021/12/25 15:31:43;;;;;;;4.00;1.00;;;;;;;;;;5094468;28;20047;-77
2021/12/25 15:34:16;;;;;;;2.70;1.30;;;;;;;;;;5077661;28;20040;-77
2021/12/25 15:36:45;;;;;;;2.10;1.20;;;;;;;;;;5081010;28;20036;-77
2021/12/25 15:39:24;;;;;;;1.67;1.08;;;;;;;;;;5078645;28;20148;-78
2021/12/25 15:41:51;;;;;;;3.38;1.65;;;;;;;;;;5097869;28;20108;-76
2021/12/25 15:44:19;;;;;;;2.10;0.98;;;;;;;;;;5099590;28;20036;-78
2021/12/25 15:46:46;;;;;;;1.95;1.20;;;;;;;;;;5082612;28;20031;-80
2021/12/25 15:49:12;;;;;;;1.58;1.48;;;;;;;;;;5078904;28;20036;-77
2021/12/25 15:51:38;;;;;;;5.07;1.67;;;;;;;;;;5101573;28;20080;-79
2021/12/25 15:54:04;;;;;;;2.20;1.48;;;;;;;;;;5084809;28;20392;-78
2021/12/25 15:56:30;;;;;;;2.33;1.58;;;;;;;;;;5100609;28;20044;-76
2021/12/25 15:58:56;;;;;;;8.35;2.00;;;;;;;;;;5098150;28;20041;-76
2021/12/25 16:01:22;;;;;;;3.75;1.42;;;;;;;;;;5084203;28;20048;-76
2021/12/25 16:03:48;;;;;;;6.32;1.77;;;;;;;;;;5092822;28;20048;-77
2021/12/25 16:06:15;;;;;;;6.72;1.65;;;;;;;;;;5084925;28;20034;-77
2021/12/25 16:08:41;;;;;;;7.28;1.90;;;;;;;;;;5105494;28;20059;-75
2021/12/25 16:11:08;;;;;;;2.42;1.55;;;;;;;;;;5101127;28;20066;-78
2021/12/25 16:13:34;;;;;;;2.05;1.58;;;;;;;;;;5097213;28;20047;-78